sensor_id;sensor_type;location;lat;lon;timestamp;temperature;humidity
70460;DHT22;57920;54.796;9.430;2023-02-03T00:00:23;20.00;39.30
70460;DHT22;57920;54.796;9.430;2023-02-03T00:02:51;19.90;39.40
70460;DHT22;57920;54.796;9.430;2023-02-03T00:05:17;19.90;39.50
70460;DHT22;57920;54.796;9.430;2023-02-03T00:07:42;19.90;39.40
70460;DHT22;57920;54.796;9.430;2023-02-03T00:10:09;19.90;39.50
70460;DHT22;57920;54.796;9.430;2023-02-03T00:12:34;19.90;39.50
70460;DHT22;57920;54.796;9.430;2023-02-03T00:15:00;19.90;39.50
70460;DHT22;57920;54.796;9.430;2023-02-03T00:17:26;20.00;39.50
70460;DHT22;57920;54.796;9.430;2023-02-03T00:19:51;20.00;39.50
70460;DHT22;57920;54.796;9.430;2023-02-03T00:22:17;20.00;39.50
70460;DHT22;57920;54.796;9.430;2023-02-03T00:24:43;20.00;39.50
70460;DHT22;57920;54.796;9.430;2023-02-03T00:27:08;20.00;39.40
70460;DHT22;57920;54.796;9.430;2023-02-03T00:29:34;20.00;39.40
70460;DHT22;57920;54.796;9.430;2023-02-03T00:31:59;20.10;39.40
70460;DHT22;57920;54.796;9.430;2023-02-03T00:34:29;20.10;39.40
70460;DHT22;57920;54.796;9.430;2023-02-03T00:36:54;20.10;39.40
70460;DHT22;57920;54.796;9.430;2023-02-03T00:39:20;20.10;39.50
70460;DHT22;57920;54.796;9.430;2023-02-03T00:41:47;20.10;39.50
70460;DHT22;57920;54.796;9.430;2023-02-03T00:44:13;20.10;39.50
70460;DHT22;57920;54.796;9.430;2023-02-03T00:46:39;20.10;39.50
70460;DHT22;57920;54.796;9.430;2023-02-03T00:49:05;20.10;39.50
70460;DHT22;57920;54.796;9.430;2023-02-03T00:51:31;20.00;39.60
70460;DHT22;57920;54.796;9.430;2023-02-03T00:53:56;20.00;39.60
70460;DHT22;57920;54.796;9.430;2023-02-03T00:56:22;20.00;39.60
70460;DHT22;57920;54.796;9.430;2023-02-03T00:58:48;20.00;39.70
70460;DHT22;57920;54.796;9.430;2023-02-03T01:01:13;20.00;39.70
70460;DHT22;57920;54.796;9.430;2023-02-03T01:03:39;20.00;39.70
70460;DHT22;57920;54.796;9.430;2023-02-03T01:06:10;20.00;39.70
70460;DHT22;57920;54.796;9.430;2023-02-03T01:08:35;20.00;39.70
70460;DHT22;57920;54.796;9.430;2023-02-03T01:11:06;20.00;39.70
70460;DHT22;57920;54.796;9.430;2023-02-03T01:13:31;20.00;39.70
70460;DHT22;57920;54.796;9.430;2023-02-03T01:15:57;20.00;39.80
70460;DHT22;57920;54.796;9.430;2023-02-03T01:18:22;20.00;39.80
70460;DHT22;57920;54.796;9.430;2023-02-03T01:20:48;20.00;39.80
70460;DHT22;57920;54.796;9.430;2023-02-03T01:23:13;20.00;39.80
70460;DHT22;57920;54.796;9.430;2023-02-03T01:25:39;20.00;39.80
70460;DHT22;57920;54.796;9.430;2023-02-03T01:28:04;20.00;39.90
70460;DHT22;57920;54.796;9.430;2023-02-03T01:30:30;20.00;39.80
70460;DHT22;57920;54.796;9.430;2023-02-03T01:32:56;20.00;39.80
70460;DHT22;57920;54.796;9.430;2023-02-03T01:35:21;20.00;39.80
70460;DHT22;57920;54.796;9.430;2023-02-03T01:37:47;20.00;39.80
70460;DHT22;57920;54.796;9.430;2023-02-03T01:40:12;20.00;39.80
70460;DHT22;57920;54.796;9.430;2023-02-03T01:42:38;20.00;39.80
70460;DHT22;57920;54.796;9.430;2023-02-03T01:45:04;20.00;39.80
70460;DHT22;57920;54.796;9.430;2023-02-03T01:47:49;20.10;39.80
70460;DHT22;57920;54.796;9.430;2023-02-03T01:50:24;20.00;39.80
70460;DHT22;57920;54.796;9.430;2023-02-03T01:52:57;20.10;39.80
70460;DHT22;57920;54.796;9.430;2023-02-03T01:55:29;20.00;39.80
70460;DHT22;57920;54.796;9.430;2023-02-03T01:58:05;20.00;39.80
70460;DHT22;57920;54.796;9.430;2023-02-03T02:00:33;20.10;39.80
70460;DHT22;57920;54.796;9.430;2023-02-03T02:02:59;20.10;39.90
70460;DHT22;57920;54.796;9.430;2023-02-03T02:05:48;20.10;39.90
70460;DHT22;57920;54.796;9.430;2023-02-03T02:08:15;20.00;39.90
70460;DHT22;57920;54.796;9.430;2023-02-03T02:10:43;20.00;40.00
70460;DHT22;57920;54.796;9.430;2023-02-03T02:13:09;20.00;39.90
70460;DHT22;57920;54.796;9.430;2023-02-03T02:16:50;20.10;40.00
70460;DHT22;57920;54.796;9.430;2023-02-03T02:45:55;20.00;40.10
70460;DHT22;57920;54.796;9.430;2023-02-03T02:48:45;20.00;40.00
70460;DHT22;57920;54.796;9.430;2023-02-03T02:51:14;20.00;40.10
70460;DHT22;57920;54.796;9.430;2023-02-03T02:54:07;20.00;40.10
70460;DHT22;57920;54.796;9.430;2023-02-03T02:56:38;20.00;40.10
70460;DHT22;57920;54.796;9.430;2023-02-03T02:59:05;20.00;40.10
70460;DHT22;57920;54.796;9.430;2023-02-03T03:01:32;20.00;40.10
70460;DHT22;57920;54.796;9.430;2023-02-03T03:04:00;20.00;40.10
70460;DHT22;57920;54.796;9.430;2023-02-03T03:06:46;20.00;40.10
70460;DHT22;57920;54.796;9.430;2023-02-03T03:09:21;20.00;40.20
70460;DHT22;57920;54.796;9.430;2023-02-03T03:12:08;20.00;40.20
70460;DHT22;57920;54.796;9.430;2023-02-03T03:14:35;20.00;40.20
70460;DHT22;57920;54.796;9.430;2023-02-03T03:17:07;20.00;40.20
70460;DHT22;57920;54.796;9.430;2023-02-03T03:19:38;20.00;40.20
70460;DHT22;57920;54.796;9.430;2023-02-03T03:22:06;20.00;40.20
70460;DHT22;57920;54.796;9.430;2023-02-03T03:24:46;20.00;40.20
70460;DHT22;57920;54.796;9.430;2023-02-03T03:27:24;20.00;40.20
70460;DHT22;57920;54.796;9.430;2023-02-03T03:32:19;20.00;40.10
70460;DHT22;57920;54.796;9.430;2023-02-03T03:34:46;20.10;40.20
70460;DHT22;57920;54.796;9.430;2023-02-03T03:37:23;20.10;40.20
70460;DHT22;57920;54.796;9.430;2023-02-03T03:40:32;20.10;40.10
70460;DHT22;57920;54.796;9.430;2023-02-03T03:43:07;20.00;40.20
70460;DHT22;57920;54.796;9.430;2023-02-03T03:45:57;20.00;40.20
70460;DHT22;57920;54.796;9.430;2023-02-03T03:51:31;20.00;40.30
70460;DHT22;57920;54.796;9.430;2023-02-03T03:53:58;20.00;40.30
70460;DHT22;57920;54.796;9.430;2023-02-03T03:56:31;20.00;40.30
70460;DHT22;57920;54.796;9.430;2023-02-03T03:59:01;20.00;40.40
70460;DHT22;57920;54.796;9.430;2023-02-03T04:01:28;20.00;40.40
70460;DHT22;57920;54.796;9.430;2023-02-03T04:03:59;20.00;40.40
70460;DHT22;57920;54.796;9.430;2023-02-03T04:06:26;20.00;40.40
70460;DHT22;57920;54.796;9.430;2023-02-03T04:08:52;20.00;40.40
70460;DHT22;57920;54.796;9.430;2023-02-03T04:11:18;20.00;40.40
70460;DHT22;57920;54.796;9.430;2023-02-03T04:14:02;20.00;40.40
70460;DHT22;57920;54.796;9.430;2023-02-03T04:16:28;20.00;40.40
70460;DHT22;57920;54.796;9.430;2023-02-03T04:18:56;20.00;40.30
70460;DHT22;57920;54.796;9.430;2023-02-03T04:21:21;20.00;40.30
70460;DHT22;57920;54.796;9.430;2023-02-03T04:23:47;20.00;40.20
70460;DHT22;57920;54.796;9.430;2023-02-03T04:26:13;20.00;40.30
70460;DHT22;57920;54.796;9.430;2023-02-03T04:28:38;20.10;40.20
70460;DHT22;57920;54.796;9.430;2023-02-03T04:31:04;20.10;40.20
70460;DHT22;57920;54.796;9.430;2023-02-03T04:33:30;20.10;40.20
70460;DHT22;57920;54.796;9.430;2023-02-03T04:35:55;20.10;40.30
70460;DHT22;57920;54.796;9.430;2023-02-03T04:38:21;20.10;40.20
70460;DHT22;57920;54.796;9.430;2023-02-03T04:40:46;20.10;40.30
70460;DHT22;57920;54.796;9.430;2023-02-03T04:43:12;20.00;40.30
70460;DHT22;57920;54.796;9.430;2023-02-03T04:45:39;20.00;40.30
70460;DHT22;57920;54.796;9.430;2023-02-03T04:48:05;20.00;40.30
70460;DHT22;57920;54.796;9.430;2023-02-03T04:50:31;20.00;40.40
70460;DHT22;57920;54.796;9.430;2023-02-03T04:52:56;20.00;40.30
70460;DHT22;57920;54.796;9.430;2023-02-03T04:55:26;20.00;40.40
70460;DHT22;57920;54.796;9.430;2023-02-03T04:57:59;20.00;40.40
70460;DHT22;57920;54.796;9.430;2023-02-03T05:00:25;20.00;40.50
70460;DHT22;57920;54.796;9.430;2023-02-03T05:02:52;20.00;40.40
70460;DHT22;57920;54.796;9.430;2023-02-03T05:05:18;20.00;40.40
70460;DHT22;57920;54.796;9.430;2023-02-03T05:07:43;20.00;40.40
70460;DHT22;57920;54.796;9.430;2023-02-03T05:10:09;20.00;40.50
70460;DHT22;57920;54.796;9.430;2023-02-03T05:12:35;20.00;40.50
70460;DHT22;57920;54.796;9.430;2023-02-03T05:15:01;20.00;40.50
70460;DHT22;57920;54.796;9.430;2023-02-03T05:17:27;20.00;40.50
70460;DHT22;57920;54.796;9.430;2023-02-03T05:19:52;20.00;40.50
70460;DHT22;57920;54.796;9.430;2023-02-03T05:22:18;20.00;40.50
70460;DHT22;57920;54.796;9.430;2023-02-03T05:24:43;20.00;40.50
70460;DHT22;57920;54.796;9.430;2023-02-03T05:27:09;20.00;40.50
70460;DHT22;57920;54.796;9.430;2023-02-03T05:29:34;20.00;40.40
70460;DHT22;57920;54.796;9.430;2023-02-03T05:32:00;20.00;40.40
70460;DHT22;57920;54.796;9.430;2023-02-03T05:34:26;20.00;40.40
70460;DHT22;57920;54.796;9.430;2023-02-03T05:36:51;20.00;40.40
70460;DHT22;57920;54.796;9.430;2023-02-03T05:39:17;20.00;40.50
70460;DHT22;57920;54.796;9.430;2023-02-03T05:41:42;20.00;40.40
70460;DHT22;57920;54.796;9.430;2023-02-03T05:44:35;20.00;40.50
70460;DHT22;57920;54.796;9.430;2023-02-03T05:47:01;20.00;40.40
70460;DHT22;57920;54.796;9.430;2023-02-03T05:49:27;20.00;40.50
70460;DHT22;57920;54.796;9.430;2023-02-03T05:51:53;20.00;40.50
70460;DHT22;57920;54.796;9.430;2023-02-03T05:54:19;20.00;40.50
70460;DHT22;57920;54.796;9.430;2023-02-03T05:56:45;20.00;40.50
70460;DHT22;57920;54.796;9.430;2023-02-03T05:59:10;20.00;40.60
70460;DHT22;57920;54.796;9.430;2023-02-03T06:01:36;20.00;40.60
70460;DHT22;57920;54.796;9.430;2023-02-03T06:04:02;20.00;40.60
70460;DHT22;57920;54.796;9.430;2023-02-03T06:06:29;20.00;40.60
70460;DHT22;57920;54.796;9.430;2023-02-03T06:09:05;20.00;40.60
70460;DHT22;57920;54.796;9.430;2023-02-03T06:11:32;20.00;40.60
70460;DHT22;57920;54.796;9.430;2023-02-03T06:13:58;20.00;40.60
70460;DHT22;57920;54.796;9.430;2023-02-03T06:16:25;20.00;40.60
70460;DHT22;57920;54.796;9.430;2023-02-03T06:18:52;20.00;40.60
70460;DHT22;57920;54.796;9.430;2023-02-03T06:21:19;20.00;40.60
70460;DHT22;57920;54.796;9.430;2023-02-03T06:23:44;20.00;40.60
70460;DHT22;57920;54.796;9.430;2023-02-03T06:26:10;20.00;40.60
70460;DHT22;57920;54.796;9.430;2023-02-03T06:28:35;20.00;40.60
70460;DHT22;57920;54.796;9.430;2023-02-03T06:31:03;20.00;40.70
70460;DHT22;57920;54.796;9.430;2023-02-03T06:33:28;20.00;40.70
70460;DHT22;57920;54.796;9.430;2023-02-03T06:35:54;20.00;40.70
70460;DHT22;57920;54.796;9.430;2023-02-03T06:38:19;20.00;40.80
70460;DHT22;57920;54.796;9.430;2023-02-03T06:40:46;20.00;40.70
70460;DHT22;57920;54.796;9.430;2023-02-03T06:43:12;19.90;40.80
70460;DHT22;57920;54.796;9.430;2023-02-03T06:45:37;19.90;40.80
70460;DHT22;57920;54.796;9.430;2023-02-03T06:48:13;19.90;40.80
70460;DHT22;57920;54.796;9.430;2023-02-03T06:50:39;20.00;40.90
70460;DHT22;57920;54.796;9.430;2023-02-03T06:53:04;20.00;40.80
70460;DHT22;57920;54.796;9.430;2023-02-03T06:55:30;20.00;40.80
70460;DHT22;57920;54.796;9.430;2023-02-03T06:57:55;20.00;40.80
70460;DHT22;57920;54.796;9.430;2023-02-03T07:00:21;20.00;41.00
70460;DHT22;57920;54.796;9.430;2023-02-03T07:02:52;20.00;40.90
70460;DHT22;57920;54.796;9.430;2023-02-03T07:05:18;20.00;40.90
70460;DHT22;57920;54.796;9.430;2023-02-03T07:07:44;20.10;40.80
70460;DHT22;57920;54.796;9.430;2023-02-03T07:10:09;20.10;40.80
70460;DHT22;57920;54.796;9.430;2023-02-03T07:12:35;20.10;41.10
70460;DHT22;57920;54.796;9.430;2023-02-03T07:15:01;20.30;40.80
70460;DHT22;57920;54.796;9.430;2023-02-03T07:17:27;20.30;40.80
70460;DHT22;57920;54.796;9.430;2023-02-03T07:20:02;20.30;40.80
70460;DHT22;57920;54.796;9.430;2023-02-03T07:22:28;20.30;41.20
70460;DHT22;57920;54.796;9.430;2023-02-03T07:24:54;20.30;41.80
70460;DHT22;57920;54.796;9.430;2023-02-03T07:27:19;20.30;41.60
70460;DHT22;57920;54.796;9.430;2023-02-03T07:29:45;20.30;41.40
70460;DHT22;57920;54.796;9.430;2023-02-03T07:32:11;20.30;41.10
70460;DHT22;57920;54.796;9.430;2023-02-03T07:34:36;20.30;41.10
70460;DHT22;57920;54.796;9.430;2023-02-03T07:37:02;20.30;41.40
70460;DHT22;57920;54.796;9.430;2023-02-03T07:39:27;20.30;41.00
70460;DHT22;57920;54.796;9.430;2023-02-03T07:41:53;20.30;40.90
70460;DHT22;57920;54.796;9.430;2023-02-03T07:44:18;20.30;40.80
70460;DHT22;57920;54.796;9.430;2023-02-03T07:46:44;20.30;40.80
70460;DHT22;57920;54.796;9.430;2023-02-03T07:49:13;20.30;40.70
70460;DHT22;57920;54.796;9.430;2023-02-03T07:51:39;20.30;40.90
70460;DHT22;57920;54.796;9.430;2023-02-03T07:54:05;20.30;41.10
70460;DHT22;57920;54.796;9.430;2023-02-03T07:56:31;20.40;41.20
70460;DHT22;57920;54.796;9.430;2023-02-03T07:58:57;20.30;41.20
70460;DHT22;57920;54.796;9.430;2023-02-03T08:01:24;20.30;41.10
70460;DHT22;57920;54.796;9.430;2023-02-03T08:03:50;20.30;41.10
70460;DHT22;57920;54.796;9.430;2023-02-03T08:06:15;19.70;37.60
70460;DHT22;57920;54.796;9.430;2023-02-03T08:08:41;16.40;41.50
70460;DHT22;57920;54.796;9.430;2023-02-03T08:11:08;15.30;44.00
70460;DHT22;57920;54.796;9.430;2023-02-03T08:13:34;16.40;42.80
70460;DHT22;57920;54.796;9.430;2023-02-03T08:15:59;17.50;41.00
70460;DHT22;57920;54.796;9.430;2023-02-03T08:18:30;18.30;39.70
70460;DHT22;57920;54.796;9.430;2023-02-03T08:20:56;18.80;38.70
70460;DHT22;57920;54.796;9.430;2023-02-03T08:23:21;19.10;38.10
70460;DHT22;57920;54.796;9.430;2023-02-03T08:25:51;19.10;38.20
70460;DHT22;57920;54.796;9.430;2023-02-03T08:28:17;19.30;38.00
70460;DHT22;57920;54.796;9.430;2023-02-03T08:30:42;19.50;37.60
70460;DHT22;57920;54.796;9.430;2023-02-03T08:33:08;19.80;39.00
70460;DHT22;57920;54.796;9.430;2023-02-03T08:35:33;20.10;37.70
70460;DHT22;57920;54.796;9.430;2023-02-03T08:37:59;20.30;37.60
70460;DHT22;57920;54.796;9.430;2023-02-03T08:40:25;20.50;37.60
70460;DHT22;57920;54.796;9.430;2023-02-03T08:42:50;20.50;37.60
70460;DHT22;57920;54.796;9.430;2023-02-03T08:45:16;20.60;38.40
70460;DHT22;57920;54.796;9.430;2023-02-03T08:47:48;20.70;38.70
70460;DHT22;57920;54.796;9.430;2023-02-03T08:50:13;20.70;39.40
70460;DHT22;57920;54.796;9.430;2023-02-03T08:52:39;20.80;39.10
70460;DHT22;57920;54.796;9.430;2023-02-03T08:55:05;20.80;38.30
70460;DHT22;57920;54.796;9.430;2023-02-03T08:57:32;20.70;38.20
70460;DHT22;57920;54.796;9.430;2023-02-03T08:59:58;20.70;38.20
70460;DHT22;57920;54.796;9.430;2023-02-03T09:02:24;20.70;38.20
70460;DHT22;57920;54.796;9.430;2023-02-03T09:04:49;20.70;38.20
70460;DHT22;57920;54.796;9.430;2023-02-03T09:07:16;20.70;38.20
70460;DHT22;57920;54.796;9.430;2023-02-03T09:09:42;20.70;38.40
70460;DHT22;57920;54.796;9.430;2023-02-03T09:12:08;20.70;38.50
70460;DHT22;57920;54.796;9.430;2023-02-03T09:14:35;20.70;38.70
70460;DHT22;57920;54.796;9.430;2023-02-03T09:17:02;20.60;38.70
70460;DHT22;57920;54.796;9.430;2023-02-03T09:19:29;20.50;38.90
70460;DHT22;57920;54.796;9.430;2023-02-03T09:21:55;20.50;38.90
70460;DHT22;57920;54.796;9.430;2023-02-03T09:24:22;20.40;39.00
70460;DHT22;57920;54.796;9.430;2023-02-03T09:26:47;20.30;39.20
70460;DHT22;57920;54.796;9.430;2023-02-03T09:29:13;20.30;39.30
70460;DHT22;57920;54.796;9.430;2023-02-03T09:31:38;20.20;39.40
70460;DHT22;57920;54.796;9.430;2023-02-03T09:34:04;20.10;39.80
70460;DHT22;57920;54.796;9.430;2023-02-03T09:36:30;20.00;39.70
70460;DHT22;57920;54.796;9.430;2023-02-03T09:38:56;20.10;39.70
70460;DHT22;57920;54.796;9.430;2023-02-03T09:46:49;20.20;39.50
70460;DHT22;57920;54.796;9.430;2023-02-03T09:52:22;20.30;39.40
70460;DHT22;57920;54.796;9.430;2023-02-03T09:54:56;20.30;39.30
70460;DHT22;57920;54.796;9.430;2023-02-03T09:57:25;20.50;39.20
70460;DHT22;57920;54.796;9.430;2023-02-03T09:59:53;20.50;39.10
70460;DHT22;57920;54.796;9.430;2023-02-03T10:05:31;20.50;39.10
70460;DHT22;57920;54.796;9.430;2023-02-03T10:11:20;20.50;39.10
70460;DHT22;57920;54.796;9.430;2023-02-03T10:19:43;20.40;39.30
70460;DHT22;57920;54.796;9.430;2023-02-03T10:22:16;20.30;39.30
70460;DHT22;57920;54.796;9.430;2023-02-03T10:24:51;20.30;39.40
70460;DHT22;57920;54.796;9.430;2023-02-03T10:27:23;20.30;39.50
70460;DHT22;57920;54.796;9.430;2023-02-03T10:32:41;20.20;39.60
70460;DHT22;57920;54.796;9.430;2023-02-03T10:35:13;20.20;39.80
70460;DHT22;57920;54.796;9.430;2023-02-03T10:37:49;20.30;40.40
70460;DHT22;57920;54.796;9.430;2023-02-03T10:40:16;20.30;39.90
70460;DHT22;57920;54.796;9.430;2023-02-03T10:42:47;20.30;39.80
70460;DHT22;57920;54.796;9.430;2023-02-03T10:45:36;20.30;39.70
70460;DHT22;57920;54.796;9.430;2023-02-03T10:48:04;20.30;39.60
70460;DHT22;57920;54.796;9.430;2023-02-03T10:50:31;20.30;39.60
70460;DHT22;57920;54.796;9.430;2023-02-03T10:53:20;20.30;39.50
70460;DHT22;57920;54.796;9.430;2023-02-03T10:56:10;20.30;39.50
70460;DHT22;57920;54.796;9.430;2023-02-03T10:58:37;20.30;39.60
70460;DHT22;57920;54.796;9.430;2023-02-03T11:01:11;20.40;39.60
70460;DHT22;57920;54.796;9.430;2023-02-03T11:03:42;20.40;39.50
70460;DHT22;57920;54.796;9.430;2023-02-03T11:06:15;20.40;39.50
70460;DHT22;57920;54.796;9.430;2023-02-03T11:08:44;20.30;39.40
70460;DHT22;57920;54.796;9.430;2023-02-03T11:11:23;20.30;39.50
70460;DHT22;57920;54.796;9.430;2023-02-03T11:14:15;20.30;39.70
70460;DHT22;57920;54.796;9.430;2023-02-03T11:16:42;20.30;40.30
70460;DHT22;57920;54.796;9.430;2023-02-03T11:19:19;20.30;39.70
70460;DHT22;57920;54.796;9.430;2023-02-03T11:21:51;20.30;40.00
70460;DHT22;57920;54.796;9.430;2023-02-03T11:24:27;20.30;40.20
70460;DHT22;57920;54.796;9.430;2023-02-03T11:29:28;20.20;39.90
70460;DHT22;57920;54.796;9.430;2023-02-03T11:31:59;20.20;39.90
70460;DHT22;57920;54.796;9.430;2023-02-03T11:34:31;20.20;39.80
70460;DHT22;57920;54.796;9.430;2023-02-03T11:37:24;20.20;39.70
70460;DHT22;57920;54.796;9.430;2023-02-03T11:39:55;20.30;39.60
70460;DHT22;57920;54.796;9.430;2023-02-03T11:42:22;20.30;39.60
70460;DHT22;57920;54.796;9.430;2023-02-03T11:44:48;20.30;39.60
70460;DHT22;57920;54.796;9.430;2023-02-03T11:47:15;20.30;39.50
70460;DHT22;57920;54.796;9.430;2023-02-03T11:50:12;20.30;39.50
70460;DHT22;57920;54.796;9.430;2023-02-03T11:53:36;20.30;39.50
70460;DHT22;57920;54.796;9.430;2023-02-03T12:01:43;20.30;39.50
70460;DHT22;57920;54.796;9.430;2023-02-03T12:09:50;20.20;39.70
70460;DHT22;57920;54.796;9.430;2023-02-03T12:12:50;20.20;39.60
70460;DHT22;57920;54.796;9.430;2023-02-03T12:18:27;20.20;39.60
70460;DHT22;57920;54.796;9.430;2023-02-03T12:26:23;20.30;39.40
70460;DHT22;57920;54.796;9.430;2023-02-03T12:29:03;20.30;39.40
70460;DHT22;57920;54.796;9.430;2023-02-03T12:31:55;20.30;39.40
70460;DHT22;57920;54.796;9.430;2023-02-03T12:35:09;20.30;39.30
70460;DHT22;57920;54.796;9.430;2023-02-03T12:41:24;20.30;39.30
70460;DHT22;57920;54.796;9.430;2023-02-03T12:43:52;20.30;39.50
70460;DHT22;57920;54.796;9.430;2023-02-03T12:46:34;20.30;39.30
70460;DHT22;57920;54.796;9.430;2023-02-03T12:49:27;20.30;39.30
70460;DHT22;57920;54.796;9.430;2023-02-03T12:52:25;20.30;39.70
70460;DHT22;57920;54.796;9.430;2023-02-03T12:55:05;20.30;39.70
70460;DHT22;57920;54.796;9.430;2023-02-03T12:57:40;20.30;39.70
70460;DHT22;57920;54.796;9.430;2023-02-03T13:00:19;20.30;40.10
70460;DHT22;57920;54.796;9.430;2023-02-03T13:05:48;20.40;40.00
70460;DHT22;57920;54.796;9.430;2023-02-03T13:08:36;20.40;40.00
70460;DHT22;57920;54.796;9.430;2023-02-03T13:11:32;20.40;40.30
70460;DHT22;57920;54.796;9.430;2023-02-03T13:14:14;20.40;40.50
70460;DHT22;57920;54.796;9.430;2023-02-03T13:16:46;20.40;40.80
70460;DHT22;57920;54.796;9.430;2023-02-03T13:19:21;20.30;40.50
70460;DHT22;57920;54.796;9.430;2023-02-03T13:21:49;20.30;40.30
70460;DHT22;57920;54.796;9.430;2023-02-03T13:24:16;20.30;40.40
70460;DHT22;57920;54.796;9.430;2023-02-03T13:27:13;20.30;40.20
70460;DHT22;57920;54.796;9.430;2023-02-03T13:43:27;20.20;39.90
70460;DHT22;57920;54.796;9.430;2023-02-03T13:45:54;20.20;39.80
70460;DHT22;57920;54.796;9.430;2023-02-03T13:48:30;20.10;39.70
70460;DHT22;57920;54.796;9.430;2023-02-03T13:51:07;20.10;39.70
70460;DHT22;57920;54.796;9.430;2023-02-03T13:53:40;20.10;39.70
70460;DHT22;57920;54.796;9.430;2023-02-03T13:56:19;20.10;39.70
70460;DHT22;57920;54.796;9.430;2023-02-03T13:58:59;20.20;39.70
70460;DHT22;57920;54.796;9.430;2023-02-03T14:03:59;20.10;39.60
70460;DHT22;57920;54.796;9.430;2023-02-03T14:17:03;20.10;39.50
70460;DHT22;57920;54.796;9.430;2023-02-03T14:21:55;20.10;39.50
70460;DHT22;57920;54.796;9.430;2023-02-03T14:24:22;20.10;39.60
70460;DHT22;57920;54.796;9.430;2023-02-03T14:26:53;20.10;39.60
70460;DHT22;57920;54.796;9.430;2023-02-03T14:29:34;20.10;39.50
70460;DHT22;57920;54.796;9.430;2023-02-03T14:32:02;20.10;39.60
70460;DHT22;57920;54.796;9.430;2023-02-03T14:37:25;20.00;39.50
70460;DHT22;57920;54.796;9.430;2023-02-03T14:59:58;20.00;39.60
70460;DHT22;57920;54.796;9.430;2023-02-03T15:02:27;20.00;39.50
70460;DHT22;57920;54.796;9.430;2023-02-03T15:07:49;20.00;39.50
70460;DHT22;57920;54.796;9.430;2023-02-03T15:10:21;20.00;39.50
70460;DHT22;57920;54.796;9.430;2023-02-03T15:12:56;20.00;39.50
70460;DHT22;57920;54.796;9.430;2023-02-03T15:15:27;20.00;39.50
70460;DHT22;57920;54.796;9.430;2023-02-03T15:17:55;20.00;39.40
70460;DHT22;57920;54.796;9.430;2023-02-03T15:22:59;20.00;39.50
70460;DHT22;57920;54.796;9.430;2023-02-03T15:25:25;20.00;39.50
70460;DHT22;57920;54.796;9.430;2023-02-03T15:27:52;20.00;39.50
70460;DHT22;57920;54.796;9.430;2023-02-03T15:30:25;20.00;39.50
70460;DHT22;57920;54.796;9.430;2023-02-03T15:33:04;20.00;39.50
70460;DHT22;57920;54.796;9.430;2023-02-03T15:35:33;20.00;39.60
70460;DHT22;57920;54.796;9.430;2023-02-03T15:38:04;20.00;39.50
70460;DHT22;57920;54.796;9.430;2023-02-03T15:40:36;20.00;39.50
70460;DHT22;57920;54.796;9.430;2023-02-03T15:48:34;20.00;39.40
70460;DHT22;57920;54.796;9.430;2023-02-03T15:51:15;20.00;39.40
70460;DHT22;57920;54.796;9.430;2023-02-03T15:56:41;20.00;39.30
70460;DHT22;57920;54.796;9.430;2023-02-03T15:59:20;20.00;39.40
70460;DHT22;57920;54.796;9.430;2023-02-03T16:01:47;20.00;39.50
70460;DHT22;57920;54.796;9.430;2023-02-03T16:04:12;20.00;39.40
70460;DHT22;57920;54.796;9.430;2023-02-03T16:06:39;20.00;39.40
70460;DHT22;57920;54.796;9.430;2023-02-03T16:09:38;19.90;39.40
70460;DHT22;57920;54.796;9.430;2023-02-03T16:12:22;20.00;39.40
70460;DHT22;57920;54.796;9.430;2023-02-03T16:14:48;20.00;39.50
70460;DHT22;57920;54.796;9.430;2023-02-03T16:17:33;19.90;39.50
70460;DHT22;57920;54.796;9.430;2023-02-03T16:23:14;19.90;39.40
70460;DHT22;57920;54.796;9.430;2023-02-03T16:25:33;19.90;39.50
70460;DHT22;57920;54.796;9.430;2023-02-03T16:28:13;19.90;39.30
70460;DHT22;57920;54.796;9.430;2023-02-03T16:31:17;19.90;39.40
70460;DHT22;57920;54.796;9.430;2023-02-03T16:34:15;20.00;39.40
70460;DHT22;57920;54.796;9.430;2023-02-03T16:37:00;20.00;39.30
70460;DHT22;57920;54.796;9.430;2023-02-03T16:39:44;20.00;39.30
70460;DHT22;57920;54.796;9.430;2023-02-03T16:42:36;19.90;39.30
70460;DHT22;57920;54.796;9.430;2023-02-03T16:45:21;19.90;39.30
70460;DHT22;57920;54.796;9.430;2023-02-03T16:48:07;19.90;39.30
70460;DHT22;57920;54.796;9.430;2023-02-03T16:50:51;20.00;39.30
70460;DHT22;57920;54.796;9.430;2023-02-03T16:53:27;20.00;39.40
70460;DHT22;57920;54.796;9.430;2023-02-03T16:55:55;20.00;39.40
70460;DHT22;57920;54.796;9.430;2023-02-03T16:58:21;20.00;39.30
70460;DHT22;57920;54.796;9.430;2023-02-03T17:00:48;20.00;39.20
70460;DHT22;57920;54.796;9.430;2023-02-03T17:03:23;20.00;39.30
70460;DHT22;57920;54.796;9.430;2023-02-03T17:05:50;19.90;39.30
70460;DHT22;57920;54.796;9.430;2023-02-03T17:08:18;19.90;39.30
70460;DHT22;57920;54.796;9.430;2023-02-03T17:10:44;19.90;39.30
70460;DHT22;57920;54.796;9.430;2023-02-03T17:13:13;19.90;39.30
70460;DHT22;57920;54.796;9.430;2023-02-03T17:15:44;19.90;39.30
70460;DHT22;57920;54.796;9.430;2023-02-03T17:18:11;19.90;39.30
70460;DHT22;57920;54.796;9.430;2023-02-03T17:20:39;19.90;39.30
70460;DHT22;57920;54.796;9.430;2023-02-03T17:23:06;19.90;39.30
70460;DHT22;57920;54.796;9.430;2023-02-03T17:25:32;19.90;39.30
70460;DHT22;57920;54.796;9.430;2023-02-03T17:28:01;19.80;39.30
70460;DHT22;57920;54.796;9.430;2023-02-03T17:30:26;19.90;39.30
70460;DHT22;57920;54.796;9.430;2023-02-03T17:32:53;19.90;39.40
70460;DHT22;57920;54.796;9.430;2023-02-03T17:35:19;19.90;39.40
70460;DHT22;57920;54.796;9.430;2023-02-03T17:37:44;19.90;39.40
70460;DHT22;57920;54.796;9.430;2023-02-03T17:40:10;19.90;39.30
70460;DHT22;57920;54.796;9.430;2023-02-03T17:42:36;19.90;39.30
70460;DHT22;57920;54.796;9.430;2023-02-03T17:45:01;19.90;39.30
70460;DHT22;57920;54.796;9.430;2023-02-03T17:47:27;19.90;39.30
70460;DHT22;57920;54.796;9.430;2023-02-03T17:49:52;19.90;39.30
70460;DHT22;57920;54.796;9.430;2023-02-03T17:52:18;19.90;39.30
70460;DHT22;57920;54.796;9.430;2023-02-03T17:54:43;19.90;39.20
70460;DHT22;57920;54.796;9.430;2023-02-03T17:57:09;19.90;39.20
70460;DHT22;57920;54.796;9.430;2023-02-03T17:59:35;19.90;39.10
70460;DHT22;57920;54.796;9.430;2023-02-03T18:02:02;19.90;39.10
70460;DHT22;57920;54.796;9.430;2023-02-03T18:04:27;19.90;39.10
70460;DHT22;57920;54.796;9.430;2023-02-03T18:06:53;19.90;39.20
70460;DHT22;57920;54.796;9.430;2023-02-03T18:09:19;19.90;39.00
70460;DHT22;57920;54.796;9.430;2023-02-03T18:11:45;19.90;39.00
70460;DHT22;57920;54.796;9.430;2023-02-03T18:14:14;19.90;39.00
70460;DHT22;57920;54.796;9.430;2023-02-03T18:16:41;20.00;39.00
70460;DHT22;57920;54.796;9.430;2023-02-03T18:19:10;20.00;38.90
70460;DHT22;57920;54.796;9.430;2023-02-03T18:21:37;20.00;38.90
70460;DHT22;57920;54.796;9.430;2023-02-03T18:24:03;20.00;38.90